Calabogie, Canada
Current Conditions -  °F | °C
As of 5:00 PM on Thursday 23 Oct 2014 (Local Time) from CYOW Reporting Station
Broken Clouds Broken Clouds  
Wind Chill: 55°   Ceiling: 4000
Heat Index: 55°   Visibility: 15mi
Dew Point: 46°   Wind: 7mph
Humidity: 72%   Direction: 350°N
Pressure: 30"   Gusts: NA
Location:  45.31°N, 76.72°W
Report Text: CYOW 232100Z 35006KT 15SM BKN040 13/08 A3000 RMK SC7 SLP162
Loading
Personal Weather Stations






























Interactive Weather Map
Tropical Storm Tracking
New forecast layout! Learn more

10-Day Weather Forecast

Advertisements
Track Severe Weather on mobile